Main page
METAR-TAF:

METAR-TAF

Airports :

Pula Airport

Pula, Croatia

latitude: 44-54N, longitude: 013-55E, elevation: 63 m

Current weather observation

The report was made 30 minutes ago, at 05:00 UTC
Wind 7 kt from the Northeast
Temperature 23°C
Humidity 53%
Pressure 1014 hPa
Visibility 10 km or more
no clouds below 1500 m and no cumulonimbus

METAR: LDPL 180500Z 04007KT CAVOK 23/13 Q1014 NOSIG

Time: 07:30 (05:30 UTC)

Forecast

The report was made 6 hours and 5 minutes ago, at 23:25 UTC
Forecast valid from 18 at 00 UTC to 19 at 00 UTC
Wind 5 kt from the North/Northeast
Visibility 10 km or more
no clouds below 1500 m and no cumulonimbus
Temporary
from 18 at 04 UTC to 18 at 06 UTC
Wind 12 kt from the East/Northeast
Becoming
from 18 at 12 UTC to 18 at 14 UTC
Wind 6 kt from the West
Becoming
from 18 at 18 UTC to 18 at 20 UTC
Wind 2 kt from variable directions

TAF: LDPL 172325Z 1800/1900 02005KT CAVOK TX31/1812Z TN20/1803Z TEMPO 1804/1806 06012KT BECMG 1812/1814 27006KT BECMG 1818/1820 VRB02KT

Weather observations and forecasts of more than 4000 airports (METAR and TAF reports).

The available stations are represented by yellow and red dots on the map.

Hover mouse over dot to see the name of the station.

Then click to see weather observations and forecasts.

To change the map : click on the green buttons with a black cross to zoom in, on the green button with a dash to zoom out, or on the green arrows for adjacent maps.


METAR-TAF: